Terminal Aerodrome Forecast
Issued by NWS

Current Version | Previous Version | Graphics & Text | Print | Product List | Glossary On
Versions: 1 2 3 4 5 6 7 8 9 10 11 12 13 14 15 16 17 18 19 20
000
FTUS41 KILN 281100
TAFLUK
TAF
KLUK 281128Z 2812/2912 21012KT P6SM SCT050 OVC200
     FM281400 22012G22KT P6SM VCSH OVC050
     FM281600 23012G22KT 5SM -SHRA BR VCTS OVC028CB
     FM282000 26010KT P6SM SCT045 SCT100 BKN200
     FM282300 26006KT P6SM BKN200=

USA.gov is the U.S. government's official web portal to all federal, state and local government web resources and services.